sensor_id;sensor_type;location;lat;lon;timestamp;P1;durP1;ratioP1;P2;durP2;ratioP2
61685;SDS011;47592;45.904;8.978;2023-11-21T00:01:35;35.22;;;29.63;;
61685;SDS011;47592;45.904;8.978;2023-11-21T00:04:00;37.67;;;30.90;;
61685;SDS011;47592;45.904;8.978;2023-11-21T00:06:28;41.60;;;30.58;;
61685;SDS011;47592;45.904;8.978;2023-11-21T00:08:55;38.08;;;31.02;;
61685;SDS011;47592;45.904;8.978;2023-11-21T00:11:20;35.35;;;30.75;;
61685;SDS011;47592;45.904;8.978;2023-11-21T00:13:48;36.03;;;30.10;;
61685;SDS011;47592;45.904;8.978;2023-11-21T00:16:14;39.03;;;30.60;;
61685;SDS011;47592;45.904;8.978;2023-11-21T00:18:41;37.28;;;30.52;;
61685;SDS011;47592;45.904;8.978;2023-11-21T00:21:10;36.72;;;30.73;;
61685;SDS011;47592;45.904;8.978;2023-11-21T00:23:38;37.03;;;30.35;;
61685;SDS011;47592;45.904;8.978;2023-11-21T00:26:03;38.15;;;30.23;;
61685;SDS011;47592;45.904;8.978;2023-11-21T00:28:29;38.45;;;30.67;;
61685;SDS011;47592;45.904;8.978;2023-11-21T00:30:55;36.45;;;30.27;;
61685;SDS011;47592;45.904;8.978;2023-11-21T00:33:20;35.95;;;29.52;;
61685;SDS011;47592;45.904;8.978;2023-11-21T00:35:48;38.33;;;30.00;;
61685;SDS011;47592;45.904;8.978;2023-11-21T00:38:13;34.92;;;29.00;;
61685;SDS011;47592;45.904;8.978;2023-11-21T00:40:39;36.85;;;29.08;;
61685;SDS011;47592;45.904;8.978;2023-11-21T00:43:04;33.45;;;28.98;;
61685;SDS011;47592;45.904;8.978;2023-11-21T00:45:30;36.40;;;28.67;;
61685;SDS011;47592;45.904;8.978;2023-11-21T00:47:55;35.42;;;28.02;;
61685;SDS011;47592;45.904;8.978;2023-11-21T00:50:23;42.17;;;29.30;;
61685;SDS011;47592;45.904;8.978;2023-11-21T00:52:51;33.70;;;27.52;;
61685;SDS011;47592;45.904;8.978;2023-11-21T00:55:16;33.35;;;26.13;;
61685;SDS011;47592;45.904;8.978;2023-11-21T00:57:46;30.42;;;26.00;;
61685;SDS011;47592;45.904;8.978;2023-11-21T01:00:12;31.52;;;26.27;;
61685;SDS011;47592;45.904;8.978;2023-11-21T01:02:45;31.70;;;25.25;;
61685;SDS011;47592;45.904;8.978;2023-11-21T01:05:12;31.77;;;25.67;;
61685;SDS011;47592;45.904;8.978;2023-11-21T01:07:38;31.90;;;24.83;;
61685;SDS011;47592;45.904;8.978;2023-11-21T01:10:06;31.52;;;25.88;;
61685;SDS011;47592;45.904;8.978;2023-11-21T01:12:36;29.08;;;25.25;;
61685;SDS011;47592;45.904;8.978;2023-11-21T01:15:03;36.35;;;25.80;;
61685;SDS011;47592;45.904;8.978;2023-11-21T01:17:32;30.85;;;24.45;;
61685;SDS011;47592;45.904;8.978;2023-11-21T01:20:00;33.63;;;24.23;;
61685;SDS011;47592;45.904;8.978;2023-11-21T01:22:26;31.05;;;24.58;;
61685;SDS011;47592;45.904;8.978;2023-11-21T01:24:53;32.88;;;24.75;;
61685;SDS011;47592;45.904;8.978;2023-11-21T01:27:19;29.05;;;23.52;;
61685;SDS011;47592;45.904;8.978;2023-11-21T01:29:45;26.73;;;22.48;;
61685;SDS011;47592;45.904;8.978;2023-11-21T01:32:10;31.27;;;23.27;;
61685;SDS011;47592;45.904;8.978;2023-11-21T01:34:38;29.33;;;23.75;;
61685;SDS011;47592;45.904;8.978;2023-11-21T01:37:04;29.23;;;23.63;;
61685;SDS011;47592;45.904;8.978;2023-11-21T01:39:30;31.20;;;25.13;;
61685;SDS011;47592;45.904;8.978;2023-11-21T01:41:56;32.28;;;24.88;;
61685;SDS011;47592;45.904;8.978;2023-11-21T01:44:24;30.70;;;24.52;;
61685;SDS011;47592;45.904;8.978;2023-11-21T01:46:50;28.92;;;22.98;;
61685;SDS011;47592;45.904;8.978;2023-11-21T01:49:15;27.90;;;21.98;;
61685;SDS011;47592;45.904;8.978;2023-11-21T01:51:47;28.75;;;20.67;;
61685;SDS011;47592;45.904;8.978;2023-11-21T01:54:14;29.52;;;22.48;;
61685;SDS011;47592;45.904;8.978;2023-11-21T01:56:40;27.25;;;22.33;;
61685;SDS011;47592;45.904;8.978;2023-11-21T01:59:05;27.65;;;21.98;;
61685;SDS011;47592;45.904;8.978;2023-11-21T02:01:32;26.95;;;21.48;;
61685;SDS011;47592;45.904;8.978;2023-11-21T02:03:58;26.73;;;21.88;;
61685;SDS011;47592;45.904;8.978;2023-11-21T02:06:24;27.95;;;21.65;;
61685;SDS011;47592;45.904;8.978;2023-11-21T02:08:50;27.88;;;22.40;;
61685;SDS011;47592;45.904;8.978;2023-11-21T02:11:16;25.83;;;21.30;;
61685;SDS011;47592;45.904;8.978;2023-11-21T02:13:44;26.30;;;22.00;;
61685;SDS011;47592;45.904;8.978;2023-11-21T02:16:10;25.38;;;22.08;;
61685;SDS011;47592;45.904;8.978;2023-11-21T02:18:37;27.40;;;22.60;;
61685;SDS011;47592;45.904;8.978;2023-11-21T02:21:04;29.70;;;22.65;;
61685;SDS011;47592;45.904;8.978;2023-11-21T02:23:32;29.10;;;23.60;;
61685;SDS011;47592;45.904;8.978;2023-11-21T02:25:58;31.70;;;24.20;;
61685;SDS011;47592;45.904;8.978;2023-11-21T02:28:26;30.75;;;23.33;;
61685;SDS011;47592;45.904;8.978;2023-11-21T02:30:52;30.30;;;23.63;;
61685;SDS011;47592;45.904;8.978;2023-11-21T02:33:21;29.25;;;22.77;;
61685;SDS011;47592;45.904;8.978;2023-11-21T02:35:47;26.98;;;23.02;;
61685;SDS011;47592;45.904;8.978;2023-11-21T02:38:13;30.67;;;23.35;;
61685;SDS011;47592;45.904;8.978;2023-11-21T02:40:39;28.58;;;22.13;;
61685;SDS011;47592;45.904;8.978;2023-11-21T02:43:04;26.05;;;22.20;;
61685;SDS011;47592;45.904;8.978;2023-11-21T02:45:30;28.17;;;22.27;;
61685;SDS011;47592;45.904;8.978;2023-11-21T02:47:59;28.23;;;21.55;;
61685;SDS011;47592;45.904;8.978;2023-11-21T02:50:26;25.50;;;20.50;;
61685;SDS011;47592;45.904;8.978;2023-11-21T02:52:52;29.50;;;21.27;;
61685;SDS011;47592;45.904;8.978;2023-11-21T02:55:19;26.23;;;21.20;;
61685;SDS011;47592;45.904;8.978;2023-11-21T02:57:45;29.98;;;21.75;;
61685;SDS011;47592;45.904;8.978;2023-11-21T03:00:10;26.40;;;21.55;;
61685;SDS011;47592;45.904;8.978;2023-11-21T03:02:40;26.20;;;21.52;;
61685;SDS011;47592;45.904;8.978;2023-11-21T03:05:12;27.35;;;20.90;;
61685;SDS011;47592;45.904;8.978;2023-11-21T03:07:40;28.05;;;20.58;;
61685;SDS011;47592;45.904;8.978;2023-11-21T03:10:06;25.42;;;21.23;;
61685;SDS011;47592;45.904;8.978;2023-11-21T03:12:36;26.42;;;20.15;;
61685;SDS011;47592;45.904;8.978;2023-11-21T03:15:03;28.02;;;21.58;;
61685;SDS011;47592;45.904;8.978;2023-11-21T03:17:30;27.55;;;20.90;;
61685;SDS011;47592;45.904;8.978;2023-11-21T03:19:56;27.95;;;21.73;;
61685;SDS011;47592;45.904;8.978;2023-11-21T03:22:22;25.50;;;19.88;;
61685;SDS011;47592;45.904;8.978;2023-11-21T03:24:50;32.13;;;22.33;;
61685;SDS011;47592;45.904;8.978;2023-11-21T03:27:15;29.83;;;21.02;;
61685;SDS011;47592;45.904;8.978;2023-11-21T03:29:43;28.45;;;21.02;;
61685;SDS011;47592;45.904;8.978;2023-11-21T03:32:08;27.67;;;21.48;;
61685;SDS011;47592;45.904;8.978;2023-11-21T03:34:34;26.40;;;20.70;;
61685;SDS011;47592;45.904;8.978;2023-11-21T03:36:59;28.98;;;20.98;;
61685;SDS011;47592;45.904;8.978;2023-11-21T03:39:25;26.55;;;20.67;;
61685;SDS011;47592;45.904;8.978;2023-11-21T03:41:50;28.92;;;20.52;;
61685;SDS011;47592;45.904;8.978;2023-11-21T03:44:17;28.55;;;20.10;;
61685;SDS011;47592;45.904;8.978;2023-11-21T03:46:43;28.33;;;20.88;;
61685;SDS011;47592;45.904;8.978;2023-11-21T03:49:09;26.20;;;18.92;;
61685;SDS011;47592;45.904;8.978;2023-11-21T03:51:35;24.35;;;19.40;;
61685;SDS011;47592;45.904;8.978;2023-11-21T03:54:03;23.55;;;19.63;;
61685;SDS011;47592;45.904;8.978;2023-11-21T03:56:29;29.45;;;20.60;;
61685;SDS011;47592;45.904;8.978;2023-11-21T03:58:57;26.85;;;20.23;;
61685;SDS011;47592;45.904;8.978;2023-11-21T04:01:22;25.02;;;19.92;;
61685;SDS011;47592;45.904;8.978;2023-11-21T04:03:52;29.25;;;20.23;;
61685;SDS011;47592;45.904;8.978;2023-11-21T04:06:17;25.02;;;19.38;;
61685;SDS011;47592;45.904;8.978;2023-11-21T04:08:43;26.20;;;20.30;;
61685;SDS011;47592;45.904;8.978;2023-11-21T04:11:09;25.45;;;19.55;;
61685;SDS011;47592;45.904;8.978;2023-11-21T04:13:37;26.98;;;20.05;;
61685;SDS011;47592;45.904;8.978;2023-11-21T04:16:06;28.90;;;20.33;;
61685;SDS011;47592;45.904;8.978;2023-11-21T04:18:32;26.98;;;20.42;;
61685;SDS011;47592;45.904;8.978;2023-11-21T04:20:59;27.77;;;20.17;;
61685;SDS011;47592;45.904;8.978;2023-11-21T04:23:29;27.50;;;20.35;;
61685;SDS011;47592;45.904;8.978;2023-11-21T04:25:55;28.08;;;20.77;;
61685;SDS011;47592;45.904;8.978;2023-11-21T04:28:22;29.63;;;19.70;;
61685;SDS011;47592;45.904;8.978;2023-11-21T04:30:48;28.92;;;20.98;;
61685;SDS011;47592;45.904;8.978;2023-11-21T04:33:13;26.98;;;20.27;;
61685;SDS011;47592;45.904;8.978;2023-11-21T04:35:39;26.15;;;18.63;;
61685;SDS011;47592;45.904;8.978;2023-11-21T04:38:04;28.40;;;20.33;;
61685;SDS011;47592;45.904;8.978;2023-11-21T04:40:32;29.45;;;19.50;;
61685;SDS011;47592;45.904;8.978;2023-11-21T04:42:57;25.65;;;19.67;;
61685;SDS011;47592;45.904;8.978;2023-11-21T04:45:25;27.15;;;19.08;;
61685;SDS011;47592;45.904;8.978;2023-11-21T04:47:51;24.65;;;18.10;;
61685;SDS011;47592;45.904;8.978;2023-11-21T04:50:17;25.70;;;19.63;;
61685;SDS011;47592;45.904;8.978;2023-11-21T04:52:44;25.10;;;18.70;;
61685;SDS011;47592;45.904;8.978;2023-11-21T04:55:09;25.30;;;18.75;;
61685;SDS011;47592;45.904;8.978;2023-11-21T04:57:35;26.70;;;19.48;;
61685;SDS011;47592;45.904;8.978;2023-11-21T05:00:03;25.17;;;20.17;;
61685;SDS011;47592;45.904;8.978;2023-11-21T05:02:31;28.45;;;20.55;;
61685;SDS011;47592;45.904;8.978;2023-11-21T05:04:59;28.25;;;20.73;;
61685;SDS011;47592;45.904;8.978;2023-11-21T05:07:27;25.92;;;20.33;;
61685;SDS011;47592;45.904;8.978;2023-11-21T05:09:57;27.85;;;21.25;;
61685;SDS011;47592;45.904;8.978;2023-11-21T05:12:30;29.55;;;21.15;;
61685;SDS011;47592;45.904;8.978;2023-11-21T05:15:00;31.35;;;21.73;;
61685;SDS011;47592;45.904;8.978;2023-11-21T05:17:28;28.42;;;22.10;;
61685;SDS011;47592;45.904;8.978;2023-11-21T05:19:54;25.52;;;20.25;;
61685;SDS011;47592;45.904;8.978;2023-11-21T05:22:22;28.60;;;21.17;;
61685;SDS011;47592;45.904;8.978;2023-11-21T05:24:47;27.05;;;21.02;;
61685;SDS011;47592;45.904;8.978;2023-11-21T05:27:12;28.35;;;21.00;;
61685;SDS011;47592;45.904;8.978;2023-11-21T05:29:41;25.02;;;19.60;;
61685;SDS011;47592;45.904;8.978;2023-11-21T05:32:06;26.65;;;20.33;;
61685;SDS011;47592;45.904;8.978;2023-11-21T05:34:34;28.67;;;19.60;;
61685;SDS011;47592;45.904;8.978;2023-11-21T05:37:02;29.23;;;20.38;;
61685;SDS011;47592;45.904;8.978;2023-11-21T05:39:27;25.58;;;19.67;;
61685;SDS011;47592;45.904;8.978;2023-11-21T05:41:57;25.58;;;19.60;;
61685;SDS011;47592;45.904;8.978;2023-11-21T05:44:29;29.92;;;20.05;;
61685;SDS011;47592;45.904;8.978;2023-11-21T05:46:54;28.80;;;20.38;;
61685;SDS011;47592;45.904;8.978;2023-11-21T05:49:20;27.13;;;19.52;;
61685;SDS011;47592;45.904;8.978;2023-11-21T05:51:47;27.30;;;20.23;;
61685;SDS011;47592;45.904;8.978;2023-11-21T05:54:13;30.63;;;20.35;;
61685;SDS011;47592;45.904;8.978;2023-11-21T05:56:38;29.10;;;19.88;;
61685;SDS011;47592;45.904;8.978;2023-11-21T05:59:09;29.48;;;20.45;;
61685;SDS011;47592;45.904;8.978;2023-11-21T06:01:35;26.75;;;19.70;;
61685;SDS011;47592;45.904;8.978;2023-11-21T06:04:04;23.95;;;19.38;;
61685;SDS011;47592;45.904;8.978;2023-11-21T06:06:30;28.48;;;19.65;;
61685;SDS011;47592;45.904;8.978;2023-11-21T06:08:56;29.33;;;19.00;;
61685;SDS011;47592;45.904;8.978;2023-11-21T06:11:22;26.67;;;19.50;;
61685;SDS011;47592;45.904;8.978;2023-11-21T06:13:47;25.50;;;18.77;;
61685;SDS011;47592;45.904;8.978;2023-11-21T06:16:13;26.40;;;18.50;;
61685;SDS011;47592;45.904;8.978;2023-11-21T06:18:46;26.38;;;18.90;;
61685;SDS011;47592;45.904;8.978;2023-11-21T06:21:11;23.80;;;17.35;;
61685;SDS011;47592;45.904;8.978;2023-11-21T06:23:37;22.98;;;16.55;;
61685;SDS011;47592;45.904;8.978;2023-11-21T06:26:03;27.42;;;19.02;;
61685;SDS011;47592;45.904;8.978;2023-11-21T06:28:32;29.02;;;19.50;;
61685;SDS011;47592;45.904;8.978;2023-11-21T06:30:58;26.92;;;19.33;;
61685;SDS011;47592;45.904;8.978;2023-11-21T06:33:23;24.98;;;17.20;;
61685;SDS011;47592;45.904;8.978;2023-11-21T06:35:55;30.35;;;18.65;;
61685;SDS011;47592;45.904;8.978;2023-11-21T06:38:20;23.92;;;17.25;;
61685;SDS011;47592;45.904;8.978;2023-11-21T06:40:48;28.40;;;19.80;;
61685;SDS011;47592;45.904;8.978;2023-11-21T06:43:13;25.92;;;18.30;;
61685;SDS011;47592;45.904;8.978;2023-11-21T06:45:41;28.73;;;18.83;;
61685;SDS011;47592;45.904;8.978;2023-11-21T06:48:06;27.08;;;18.45;;
61685;SDS011;47592;45.904;8.978;2023-11-21T06:50:32;28.00;;;19.42;;
61685;SDS011;47592;45.904;8.978;2023-11-21T06:52:57;27.48;;;19.23;;
61685;SDS011;47592;45.904;8.978;2023-11-21T06:55:29;30.52;;;19.13;;
61685;SDS011;47592;45.904;8.978;2023-11-21T06:57:54;30.83;;;20.70;;
61685;SDS011;47592;45.904;8.978;2023-11-21T07:00:22;26.88;;;18.52;;
61685;SDS011;47592;45.904;8.978;2023-11-21T07:02:47;28.48;;;18.48;;
61685;SDS011;47592;45.904;8.978;2023-11-21T07:05:15;28.63;;;19.33;;
61685;SDS011;47592;45.904;8.978;2023-11-21T07:07:45;27.90;;;18.40;;
61685;SDS011;47592;45.904;8.978;2023-11-21T07:10:11;28.58;;;18.83;;
61685;SDS011;47592;45.904;8.978;2023-11-21T07:12:36;28.60;;;19.10;;
61685;SDS011;47592;45.904;8.978;2023-11-21T07:15:02;26.38;;;16.80;;
61685;SDS011;47592;45.904;8.978;2023-11-21T07:17:30;28.70;;;18.83;;
61685;SDS011;47592;45.904;8.978;2023-11-21T07:19:56;29.02;;;19.08;;
61685;SDS011;47592;45.904;8.978;2023-11-21T07:22:21;31.45;;;19.60;;
61685;SDS011;47592;45.904;8.978;2023-11-21T07:24:50;29.42;;;18.88;;
61685;SDS011;47592;45.904;8.978;2023-11-21T07:27:21;28.55;;;18.77;;
61685;SDS011;47592;45.904;8.978;2023-11-21T07:29:50;30.27;;;20.02;;
61685;SDS011;47592;45.904;8.978;2023-11-21T07:32:17;30.80;;;18.67;;
61685;SDS011;47592;45.904;8.978;2023-11-21T07:34:45;31.70;;;18.25;;
61685;SDS011;47592;45.904;8.978;2023-11-21T07:37:11;29.10;;;20.52;;
61685;SDS011;47592;45.904;8.978;2023-11-21T07:39:36;28.15;;;19.02;;
61685;SDS011;47592;45.904;8.978;2023-11-21T07:42:02;28.20;;;19.25;;
61685;SDS011;47592;45.904;8.978;2023-11-21T07:44:30;27.20;;;17.98;;
61685;SDS011;47592;45.904;8.978;2023-11-21T07:46:58;31.58;;;19.63;;
61685;SDS011;47592;45.904;8.978;2023-11-21T07:49:24;27.25;;;17.98;;
61685;SDS011;47592;45.904;8.978;2023-11-21T07:51:52;33.08;;;20.23;;
61685;SDS011;47592;45.904;8.978;2023-11-21T07:54:17;27.52;;;19.65;;
61685;SDS011;47592;45.904;8.978;2023-11-21T07:56:46;28.85;;;17.67;;
61685;SDS011;47592;45.904;8.978;2023-11-21T07:59:14;32.22;;;19.75;;
61685;SDS011;47592;45.904;8.978;2023-11-21T08:01:40;29.75;;;18.17;;
61685;SDS011;47592;45.904;8.978;2023-11-21T08:04:05;28.77;;;19.70;;
61685;SDS011;47592;45.904;8.978;2023-11-21T08:06:31;27.38;;;19.23;;
61685;SDS011;47592;45.904;8.978;2023-11-21T08:08:58;30.55;;;20.10;;
61685;SDS011;47592;45.904;8.978;2023-11-21T08:11:23;28.63;;;19.45;;
61685;SDS011;47592;45.904;8.978;2023-11-21T08:13:54;29.63;;;19.98;;
61685;SDS011;47592;45.904;8.978;2023-11-21T08:16:20;28.38;;;19.45;;
61685;SDS011;47592;45.904;8.978;2023-11-21T08:18:45;30.70;;;18.60;;
61685;SDS011;47592;45.904;8.978;2023-11-21T08:21:12;30.75;;;19.27;;
61685;SDS011;47592;45.904;8.978;2023-11-21T08:23:40;31.75;;;19.40;;
61685;SDS011;47592;45.904;8.978;2023-11-21T08:26:08;29.83;;;19.15;;
61685;SDS011;47592;45.904;8.978;2023-11-21T08:28:35;31.25;;;20.58;;
61685;SDS011;47592;45.904;8.978;2023-11-21T08:31:01;29.70;;;19.10;;
61685;SDS011;47592;45.904;8.978;2023-11-21T08:33:26;29.17;;;18.88;;
61685;SDS011;47592;45.904;8.978;2023-11-21T08:35:55;30.73;;;20.48;;
61685;SDS011;47592;45.904;8.978;2023-11-21T08:38:23;28.48;;;19.48;;
61685;SDS011;47592;45.904;8.978;2023-11-21T08:40:48;28.35;;;19.45;;
61685;SDS011;47592;45.904;8.978;2023-11-21T08:43:18;29.40;;;19.80;;
61685;SDS011;47592;45.904;8.978;2023-11-21T08:45:44;29.93;;;19.60;;
61685;SDS011;47592;45.904;8.978;2023-11-21T08:48:10;30.77;;;19.45;;
61685;SDS011;47592;45.904;8.978;2023-11-21T08:50:36;28.88;;;19.38;;
61685;SDS011;47592;45.904;8.978;2023-11-21T08:53:02;27.20;;;18.33;;
61685;SDS011;47592;45.904;8.978;2023-11-21T08:55:30;28.98;;;18.73;;
61685;SDS011;47592;45.904;8.978;2023-11-21T08:57:58;30.42;;;18.77;;
61685;SDS011;47592;45.904;8.978;2023-11-21T09:00:24;26.45;;;18.77;;
61685;SDS011;47592;45.904;8.978;2023-11-21T09:02:51;28.73;;;18.55;;
61685;SDS011;47592;45.904;8.978;2023-11-21T09:05:17;26.83;;;18.35;;
61685;SDS011;47592;45.904;8.978;2023-11-21T09:07:45;30.85;;;19.13;;
61685;SDS011;47592;45.904;8.978;2023-11-21T09:10:13;31.40;;;19.92;;
61685;SDS011;47592;45.904;8.978;2023-11-21T09:12:41;28.58;;;19.48;;
61685;SDS011;47592;45.904;8.978;2023-11-21T09:15:09;30.13;;;19.40;;
61685;SDS011;47592;45.904;8.978;2023-11-21T09:17:36;29.98;;;20.42;;
61685;SDS011;47592;45.904;8.978;2023-11-21T09:20:02;29.13;;;18.67;;
61685;SDS011;47592;45.904;8.978;2023-11-21T09:22:30;31.02;;;19.63;;
61685;SDS011;47592;45.904;8.978;2023-11-21T09:24:57;29.20;;;19.75;;
61685;SDS011;47592;45.904;8.978;2023-11-21T09:27:22;32.65;;;20.23;;
61685;SDS011;47592;45.904;8.978;2023-11-21T09:29:48;30.02;;;19.33;;
61685;SDS011;47592;45.904;8.978;2023-11-21T09:32:14;27.52;;;19.20;;
61685;SDS011;47592;45.904;8.978;2023-11-21T09:37:11;30.85;;;19.00;;
61685;SDS011;47592;45.904;8.978;2023-11-21T09:39:36;28.38;;;17.88;;
61685;SDS011;47592;45.904;8.978;2023-11-21T09:47:18;31.85;;;20.73;;
61685;SDS011;47592;45.904;8.978;2023-11-21T09:49:48;33.67;;;21.67;;
61685;SDS011;47592;45.904;8.978;2023-11-21T09:52:26;31.75;;;19.65;;
61685;SDS011;47592;45.904;8.978;2023-11-21T09:54:55;38.78;;;24.02;;
61685;SDS011;47592;45.904;8.978;2023-11-21T09:57:24;30.70;;;19.88;;
61685;SDS011;47592;45.904;8.978;2023-11-21T09:59:53;27.65;;;19.10;;
61685;SDS011;47592;45.904;8.978;2023-11-21T10:02:25;29.60;;;17.88;;
61685;SDS011;47592;45.904;8.978;2023-11-21T10:04:55;31.48;;;21.05;;
61685;SDS011;47592;45.904;8.978;2023-11-21T10:07:21;29.25;;;19.40;;
61685;SDS011;47592;45.904;8.978;2023-11-21T10:09:52;26.48;;;17.48;;
61685;SDS011;47592;45.904;8.978;2023-11-21T10:12:20;30.55;;;18.40;;
61685;SDS011;47592;45.904;8.978;2023-11-21T10:14:51;25.48;;;17.35;;
61685;SDS011;47592;45.904;8.978;2023-11-21T10:17:18;25.55;;;16.95;;
61685;SDS011;47592;45.904;8.978;2023-11-21T10:19:46;24.67;;;16.98;;
61685;SDS011;47592;45.904;8.978;2023-11-21T10:22:12;23.92;;;16.25;;
61685;SDS011;47592;45.904;8.978;2023-11-21T10:24:40;26.00;;;17.45;;
61685;SDS011;47592;45.904;8.978;2023-11-21T10:27:05;27.80;;;17.50;;
61685;SDS011;47592;45.904;8.978;2023-11-21T10:29:30;25.70;;;18.35;;
61685;SDS011;47592;45.904;8.978;2023-11-21T10:32:00;23.70;;;16.38;;
61685;SDS011;47592;45.904;8.978;2023-11-21T10:34:27;25.00;;;15.98;;
61685;SDS011;47592;45.904;8.978;2023-11-21T10:36:52;21.88;;;15.88;;
61685;SDS011;47592;45.904;8.978;2023-11-21T10:39:19;24.13;;;16.88;;
61685;SDS011;47592;45.904;8.978;2023-11-21T10:41:45;25.90;;;16.42;;
61685;SDS011;47592;45.904;8.978;2023-11-21T10:44:19;21.73;;;15.82;;
61685;SDS011;47592;45.904;8.978;2023-11-21T10:46:52;22.08;;;15.68;;
61685;SDS011;47592;45.904;8.978;2023-11-21T10:49:22;26.30;;;16.23;;
61685;SDS011;47592;45.904;8.978;2023-11-21T10:51:55;24.20;;;15.85;;
61685;SDS011;47592;45.904;8.978;2023-11-21T10:54:21;24.10;;;15.63;;
61685;SDS011;47592;45.904;8.978;2023-11-21T10:56:52;27.20;;;15.38;;
61685;SDS011;47592;45.904;8.978;2023-11-21T10:59:26;20.45;;;14.25;;
61685;SDS011;47592;45.904;8.978;2023-11-21T11:01:54;23.77;;;14.98;;
61685;SDS011;47592;45.904;8.978;2023-11-21T11:04:22;19.50;;;13.40;;
61685;SDS011;47592;45.904;8.978;2023-11-21T11:06:56;19.50;;;13.35;;
61685;SDS011;47592;45.904;8.978;2023-11-21T11:09:23;20.23;;;13.70;;
61685;SDS011;47592;45.904;8.978;2023-11-21T11:11:48;18.55;;;13.23;;
61685;SDS011;47592;45.904;8.978;2023-11-21T11:14:14;20.90;;;13.52;;
61685;SDS011;47592;45.904;8.978;2023-11-21T11:16:40;22.08;;;14.70;;
61685;SDS011;47592;45.904;8.978;2023-11-21T11:19:08;21.65;;;15.13;;
61685;SDS011;47592;45.904;8.978;2023-11-21T11:24:33;22.15;;;14.85;;
61685;SDS011;47592;45.904;8.978;2023-11-21T11:33:44;24.38;;;15.55;;
61685;SDS011;47592;45.904;8.978;2023-11-21T11:38:32;23.17;;;15.43;;
61685;SDS011;47592;45.904;8.978;2023-11-21T11:41:01;22.30;;;15.48;;
61685;SDS011;47592;45.904;8.978;2023-11-21T11:46:09;19.75;;;14.77;;
61685;SDS011;47592;45.904;8.978;2023-11-21T11:48:38;23.83;;;16.17;;
61685;SDS011;47592;45.904;8.978;2023-11-21T11:51:14;21.05;;;14.65;;
61685;SDS011;47592;45.904;8.978;2023-11-21T11:53:42;23.00;;;14.68;;
61685;SDS011;47592;45.904;8.978;2023-11-21T11:58:58;20.88;;;15.00;;
61685;SDS011;47592;45.904;8.978;2023-11-21T12:01:25;21.92;;;14.20;;
61685;SDS011;47592;45.904;8.978;2023-11-21T12:07:07;19.58;;;13.27;;
61685;SDS011;47592;45.904;8.978;2023-11-21T12:09:32;19.25;;;12.85;;
61685;SDS011;47592;45.904;8.978;2023-11-21T12:11:58;19.42;;;13.23;;
61685;SDS011;47592;45.904;8.978;2023-11-21T12:14:23;19.42;;;13.02;;
61685;SDS011;47592;45.904;8.978;2023-11-21T12:16:51;21.00;;;13.90;;
61685;SDS011;47592;45.904;8.978;2023-11-21T12:19:17;18.67;;;13.07;;
61685;SDS011;47592;45.904;8.978;2023-11-21T12:21:45;22.65;;;13.57;;
61685;SDS011;47592;45.904;8.978;2023-11-21T12:24:12;20.42;;;14.20;;
61685;SDS011;47592;45.904;8.978;2023-11-21T12:26:41;20.73;;;13.20;;
61685;SDS011;47592;45.904;8.978;2023-11-21T12:29:07;19.30;;;14.07;;
61685;SDS011;47592;45.904;8.978;2023-11-21T12:31:33;21.08;;;14.82;;
61685;SDS011;47592;45.904;8.978;2023-11-21T12:34:01;19.95;;;14.20;;
61685;SDS011;47592;45.904;8.978;2023-11-21T12:36:26;20.75;;;14.80;;
61685;SDS011;47592;45.904;8.978;2023-11-21T12:38:55;20.17;;;14.65;;
61685;SDS011;47592;45.904;8.978;2023-11-21T12:41:20;21.42;;;15.25;;
61685;SDS011;47592;45.904;8.978;2023-11-21T12:43:46;20.10;;;14.50;;
61685;SDS011;47592;45.904;8.978;2023-11-21T12:46:12;20.15;;;14.75;;
61685;SDS011;47592;45.904;8.978;2023-11-21T12:48:39;21.67;;;15.82;;
61685;SDS011;47592;45.904;8.978;2023-11-21T12:51:10;21.35;;;15.18;;
61685;SDS011;47592;45.904;8.978;2023-11-21T12:53:41;20.38;;;15.52;;
61685;SDS011;47592;45.904;8.978;2023-11-21T12:56:09;20.15;;;14.80;;
61685;SDS011;47592;45.904;8.978;2023-11-21T12:58:36;20.98;;;14.65;;
61685;SDS011;47592;45.904;8.978;2023-11-21T13:01:04;21.35;;;15.68;;
61685;SDS011;47592;45.904;8.978;2023-11-21T13:03:48;20.52;;;14.75;;
61685;SDS011;47592;45.904;8.978;2023-11-21T13:06:15;20.60;;;14.20;;
61685;SDS011;47592;45.904;8.978;2023-11-21T13:08:44;20.67;;;15.18;;
61685;SDS011;47592;45.904;8.978;2023-11-21T13:11:10;19.70;;;13.85;;
61685;SDS011;47592;45.904;8.978;2023-11-21T13:13:36;20.63;;;14.45;;
61685;SDS011;47592;45.904;8.978;2023-11-21T13:16:03;21.48;;;15.43;;
61685;SDS011;47592;45.904;8.978;2023-11-21T13:18:29;19.08;;;15.07;;
61685;SDS011;47592;45.904;8.978;2023-11-21T13:21:00;20.77;;;15.93;;
61685;SDS011;47592;45.904;8.978;2023-11-21T13:23:28;21.52;;;16.17;;
61685;SDS011;47592;45.904;8.978;2023-11-21T13:25:54;20.63;;;15.90;;
61685;SDS011;47592;45.904;8.978;2023-11-21T13:28:20;22.65;;;15.40;;
61685;SDS011;47592;45.904;8.978;2023-11-21T13:30:48;22.00;;;16.73;;
61685;SDS011;47592;45.904;8.978;2023-11-21T13:33:20;22.75;;;15.70;;
61685;SDS011;47592;45.904;8.978;2023-11-21T13:35:52;22.48;;;16.27;;
61685;SDS011;47592;45.904;8.978;2023-11-21T13:38:20;22.65;;;16.42;;
61685;SDS011;47592;45.904;8.978;2023-11-21T13:40:49;23.27;;;16.75;;
61685;SDS011;47592;45.904;8.978;2023-11-21T13:43:18;21.27;;;15.30;;
61685;SDS011;47592;45.904;8.978;2023-11-21T13:45:46;26.55;;;16.55;;
61685;SDS011;47592;45.904;8.978;2023-11-21T13:48:14;22.17;;;16.63;;
61685;SDS011;47592;45.904;8.978;2023-11-21T13:53:20;21.30;;;15.77;;
61685;SDS011;47592;45.904;8.978;2023-11-21T13:55:51;24.02;;;17.83;;
61685;SDS011;47592;45.904;8.978;2023-11-21T13:58:23;26.58;;;17.33;;
61685;SDS011;47592;45.904;8.978;2023-11-21T14:01:12;23.73;;;17.38;;
61685;SDS011;47592;45.904;8.978;2023-11-21T14:03:50;25.58;;;17.17;;
61685;SDS011;47592;45.904;8.978;2023-11-21T14:06:25;22.58;;;16.70;;
61685;SDS011;47592;45.904;8.978;2023-11-21T14:08:57;23.88;;;17.95;;
61685;SDS011;47592;45.904;8.978;2023-11-21T14:11:32;24.27;;;17.85;;
61685;SDS011;47592;45.904;8.978;2023-11-21T14:14:03;23.73;;;17.45;;
61685;SDS011;47592;45.904;8.978;2023-11-21T14:16:28;24.20;;;17.42;;
61685;SDS011;47592;45.904;8.978;2023-11-21T14:18:56;24.50;;;17.35;;
61685;SDS011;47592;45.904;8.978;2023-11-21T14:21:34;25.15;;;18.17;;
61685;SDS011;47592;45.904;8.978;2023-11-21T14:24:02;25.33;;;17.83;;
61685;SDS011;47592;45.904;8.978;2023-11-21T14:26:28;23.33;;;17.35;;
61685;SDS011;47592;45.904;8.978;2023-11-21T14:28:56;25.70;;;17.52;;
61685;SDS011;47592;45.904;8.978;2023-11-21T14:31:22;24.27;;;17.95;;
61685;SDS011;47592;45.904;8.978;2023-11-21T14:33:52;29.10;;;18.15;;
61685;SDS011;47592;45.904;8.978;2023-11-21T14:36:18;23.75;;;18.30;;
61685;SDS011;47592;45.904;8.978;2023-11-21T14:38:43;23.38;;;17.45;;
61685;SDS011;47592;45.904;8.978;2023-11-21T14:41:11;22.75;;;17.88;;
61685;SDS011;47592;45.904;8.978;2023-11-21T14:43:39;23.85;;;18.35;;
61685;SDS011;47592;45.904;8.978;2023-11-21T14:46:05;24.02;;;18.48;;
61685;SDS011;47592;45.904;8.978;2023-11-21T14:48:41;27.80;;;18.80;;
61685;SDS011;47592;45.904;8.978;2023-11-21T14:51:20;26.65;;;19.05;;
61685;SDS011;47592;45.904;8.978;2023-11-21T14:54:10;26.02;;;17.45;;